createdAt,value
2022-12-18T00:01:32.655Z,162.52
2022-12-18T00:04:01.963Z,122.22
2022-12-18T00:06:30.614Z,153.15
2022-12-18T00:08:59.246Z,148.45
2022-12-18T00:11:29.861Z,125.25
2022-12-18T00:13:59.654Z,137.98
2022-12-18T00:16:28.576Z,124.73
2022-12-18T00:18:57.826Z,127.15
2022-12-18T00:21:25.423Z,121.35
2022-12-18T00:23:53.077Z,117.88
2022-12-18T00:26:25.775Z,138.38
2022-12-18T00:29:00.331Z,117.40
2022-12-18T00:31:27.727Z,144.93
2022-12-18T00:33:56.876Z,153.93
2022-12-18T00:36:27.255Z,147.45
2022-12-18T00:38:56.082Z,126.72
2022-12-18T00:41:42.543Z,138.73
2022-12-18T00:44:12.752Z,139.23
2022-12-18T00:46:41.120Z,155.15
2022-12-18T00:49:08.579Z,143.35
2022-12-18T00:51:36.368Z,141.73
2022-12-18T00:54:03.714Z,149.30
2022-12-18T00:56:32.036Z,150.02
2022-12-18T00:58:59.341Z,150.85
2022-12-18T01:01:26.707Z,140.43
2022-12-18T01:03:53.991Z,145.88
2022-12-18T01:06:24.335Z,105.43
2022-12-18T01:08:51.702Z,145.60
2022-12-18T01:11:20.960Z,136.30
2022-12-18T01:13:49.035Z,148.48
2022-12-18T01:16:18.122Z,155.88
2022-12-18T01:18:45.801Z,168.02
2022-12-18T01:21:16.059Z,178.57
2022-12-18T01:23:47.205Z,170.18
2022-12-18T01:26:16.715Z,205.07
2022-12-18T01:28:45.209Z,231.30
2022-12-18T01:31:21.887Z,237.00
2022-12-18T01:33:50.199Z,237.32
2022-12-18T01:36:26.391Z,195.70
2022-12-18T01:38:54.515Z,184.18
2022-12-18T01:41:26.583Z,172.43
2022-12-18T01:43:58.204Z,168.10
2022-12-18T01:46:26.643Z,176.25
2022-12-18T01:49:00.496Z,166.23
2022-12-18T01:51:30.657Z,174.23
2022-12-18T01:54:00.156Z,175.00
2022-12-18T01:56:27.748Z,167.63
2022-12-18T01:59:05.561Z,186.70
2022-12-18T02:01:34.191Z,194.32
2022-12-18T02:04:35.123Z,194.97
2022-12-18T02:07:11.185Z,218.60
2022-12-18T02:09:45.964Z,215.85
2022-12-18T02:12:21.236Z,177.05
2022-12-18T02:15:16.001Z,151.38
2022-12-18T02:17:53.339Z,210.30
2022-12-18T02:20:34.229Z,220.45
2022-12-18T02:23:39.400Z,300.35
2022-12-18T02:26:18.683Z,168.55
2022-12-18T02:28:56.860Z,142.43
2022-12-18T02:31:29.210Z,90.32
2022-12-18T02:33:59.553Z,98.68
2022-12-18T02:36:29.425Z,176.18
2022-12-18T02:38:59.860Z,218.23
2022-12-18T02:41:27.556Z,222.88
2022-12-18T02:43:59.052Z,284.75
2022-12-18T02:46:29.736Z,300.90
2022-12-18T02:49:07.625Z,392.27
2022-12-18T02:51:51.483Z,257.10
2022-12-18T02:54:51.438Z,295.38
2022-12-18T02:57:47.792Z,206.73
2022-12-18T03:00:17.981Z,267.27
2022-12-18T03:03:04.078Z,266.15
2022-12-18T03:05:41.190Z,225.57
2022-12-18T03:08:23.956Z,221.07
2022-12-18T03:11:01.205Z,144.23
2022-12-18T03:13:34.261Z,275.77
2022-12-18T03:16:03.827Z,290.58
2022-12-18T03:18:37.901Z,270.10
2022-12-18T03:21:08.256Z,212.52
2022-12-18T03:23:44.019Z,204.45
2022-12-18T03:26:16.351Z,197.05
2022-12-18T03:28:50.856Z,169.93
2022-12-18T03:31:23.327Z,220.85
2022-12-18T03:33:59.993Z,193.27
2022-12-18T03:36:35.970Z,152.13
2022-12-18T03:39:03.633Z,248.77
2022-12-18T03:41:46.001Z,177.90
2022-12-18T03:44:44.971Z,200.30
2022-12-18T03:47:27.542Z,203.33
2022-12-18T03:50:20.718Z,179.82
2022-12-18T03:53:10.117Z,148.52
2022-12-18T03:55:37.995Z,130.95
2022-12-18T03:58:09.289Z,120.10
2022-12-18T04:00:52.286Z,117.53
2022-12-18T04:03:26.196Z,119.22
2022-12-18T04:05:56.576Z,121.72
2022-12-18T04:08:25.650Z,116.72
2022-12-18T04:11:02.956Z,115.50
2022-12-18T04:13:35.289Z,112.47
2022-12-18T04:16:04.837Z,112.20
2022-12-18T04:18:33.015Z,113.57
2022-12-18T04:21:02.204Z,108.75
2022-12-18T04:23:29.864Z,110.90
2022-12-18T04:25:59.407Z,106.07
2022-12-18T04:28:54.089Z,110.00
2022-12-18T04:31:22.729Z,107.68
2022-12-18T04:33:50.261Z,102.75
2022-12-18T04:36:17.905Z,100.53
2022-12-18T04:38:46.636Z,101.18
2022-12-18T04:41:16.698Z,100.88
2022-12-18T04:43:47.254Z,96.07
2022-12-18T04:46:14.601Z,99.28
2022-12-18T04:48:41.908Z,97.07
2022-12-18T04:51:09.216Z,94.63
2022-12-18T04:53:36.707Z,93.47
2022-12-18T04:56:09.561Z,89.40
2022-12-18T04:58:38.401Z,95.20
2022-12-18T05:01:06.912Z,89.37
2022-12-18T05:03:35.213Z,88.23
2022-12-18T05:06:02.951Z,93.68
2022-12-18T05:08:30.343Z,92.22
2022-12-18T05:11:09.346Z,93.73
2022-12-18T05:13:39.122Z,87.57
2022-12-18T05:16:07.413Z,89.32
2022-12-18T05:18:35.501Z,83.05
2022-12-18T05:21:03.513Z,84.43
2022-12-18T05:23:31.105Z,83.55
2022-12-18T05:26:03.294Z,90.40
2022-12-18T05:28:32.721Z,89.60
2022-12-18T05:31:01.888Z,85.25
2022-12-18T05:33:32.430Z,82.88
2022-12-18T05:36:01.443Z,85.60
2022-12-18T05:38:30.102Z,83.17
2022-12-18T05:40:58.165Z,81.40
2022-12-18T05:43:26.652Z,85.32
2022-12-18T05:45:54.086Z,86.18
2022-12-18T05:48:22.240Z,86.05
2022-12-18T05:50:50.611Z,87.95
2022-12-18T05:53:21.169Z,87.30
2022-12-18T05:55:48.687Z,80.60
2022-12-18T05:58:16.554Z,74.47
2022-12-18T06:00:46.748Z,70.30
2022-12-18T06:03:14.874Z,74.97
2022-12-18T06:05:44.631Z,74.43
2022-12-18T06:08:13.367Z,75.45
2022-12-18T06:10:41.326Z,77.60
2022-12-18T06:13:09.503Z,80.10
2022-12-18T06:15:39.907Z,75.33
2022-12-18T06:18:07.156Z,78.50
2022-12-18T06:20:34.644Z,69.13
2022-12-18T06:23:02.054Z,66.70
2022-12-18T06:25:29.433Z,68.45
2022-12-18T06:27:56.734Z,47.70
2022-12-18T06:30:24.190Z,64.18
2022-12-18T06:32:56.381Z,64.78
2022-12-18T06:35:24.449Z,59.60
2022-12-18T06:37:51.864Z,63.40
2022-12-18T06:40:19.895Z,34.78
2022-12-18T06:42:47.251Z,57.42
2022-12-18T06:45:14.580Z,56.90
2022-12-18T06:47:41.823Z,60.33
2022-12-18T06:50:09.403Z,50.33
2022-12-18T06:52:37.718Z,59.07
2022-12-18T06:55:05.627Z,52.47
2022-12-18T06:57:32.793Z,57.70
2022-12-18T07:00:00.052Z,49.90
2022-12-18T07:02:27.384Z,55.50
2022-12-18T07:04:54.741Z,59.00
2022-12-18T07:07:22.074Z,53.47
2022-12-18T07:09:51.036Z,56.25
2022-12-18T07:12:18.510Z,33.77
2022-12-18T07:14:45.716Z,49.60
2022-12-18T07:17:13.010Z,40.05
2022-12-18T07:19:40.276Z,48.28
2022-12-18T07:22:07.492Z,47.17
2022-12-18T07:24:35.480Z,47.17
2022-12-18T07:27:03.558Z,45.03
2022-12-18T07:29:31.865Z,30.73
2022-12-18T07:31:59.101Z,47.28
2022-12-18T07:34:26.521Z,33.55
2022-12-18T07:36:53.826Z,46.37
2022-12-18T07:39:21.165Z,36.90
2022-12-18T07:42:08.358Z,44.53
2022-12-18T07:44:35.704Z,43.67
2022-12-18T07:47:06.535Z,46.70
2022-12-18T07:49:36.265Z,43.80
2022-12-18T07:52:03.581Z,37.55
2022-12-18T07:54:30.843Z,45.08
2022-12-18T07:56:59.230Z,36.63
2022-12-18T07:59:26.408Z,43.33
2022-12-18T08:01:53.608Z,37.43
2022-12-18T08:04:20.843Z,41.78
2022-12-18T08:06:48.535Z,43.30
2022-12-18T08:09:15.916Z,46.53
2022-12-18T08:11:43.342Z,40.97
2022-12-18T08:14:10.790Z,36.25
2022-12-18T08:16:38.330Z,33.92
2022-12-18T08:19:05.609Z,38.08
2022-12-18T08:21:33.270Z,34.55
2022-12-18T08:24:01.867Z,26.17
2022-12-18T08:26:31.138Z,40.83
2022-12-18T08:29:00.009Z,33.28
2022-12-18T08:31:29.168Z,37.00
2022-12-18T08:33:57.144Z,36.08
2022-12-18T08:36:24.956Z,39.53
2022-12-18T08:38:53.897Z,35.40
2022-12-18T08:41:21.475Z,30.15
2022-12-18T08:44:07.051Z,39.28
2022-12-18T08:46:38.295Z,34.13
2022-12-18T08:49:06.809Z,32.53
2022-12-18T08:51:34.977Z,37.67
2022-12-18T08:54:02.647Z,34.78
2022-12-18T08:56:30.921Z,38.45
2022-12-18T08:58:58.857Z,33.10
2022-12-18T09:01:26.398Z,36.72
2022-12-18T09:03:53.766Z,34.03
2022-12-18T09:06:23.115Z,34.72
2022-12-18T09:08:50.426Z,34.90
2022-12-18T09:11:26.056Z,32.17
2022-12-18T09:13:54.896Z,35.58
2022-12-18T09:16:27.379Z,34.78
2022-12-18T09:19:02.676Z,29.52
2022-12-18T09:21:36.775Z,34.67
2022-12-18T09:24:07.327Z,32.30
2022-12-18T09:26:36.741Z,34.78
2022-12-18T09:29:04.681Z,28.53
2022-12-18T09:31:31.917Z,36.13
2022-12-18T09:33:59.141Z,32.42
2022-12-18T09:36:26.418Z,34.43
2022-12-18T09:38:54.239Z,26.33
2022-12-18T09:41:46.831Z,35.33
2022-12-18T09:44:20.445Z,24.35
2022-12-18T09:46:59.240Z,35.05
2022-12-18T09:49:30.089Z,34.05
2022-12-18T09:52:05.572Z,31.97
2022-12-18T09:54:39.235Z,24.57
2022-12-18T09:57:06.544Z,33.40
2022-12-18T09:59:40.068Z,33.83
2022-12-18T10:02:22.650Z,31.37
2022-12-18T10:05:15.157Z,34.80
2022-12-18T10:08:01.973Z,34.75
2022-12-18T10:10:39.754Z,36.07
2022-12-18T10:13:16.596Z,34.33
2022-12-18T10:16:13.694Z,25.40
2022-12-18T10:18:41.334Z,35.10
2022-12-18T10:21:14.502Z,31.25
2022-12-18T10:23:52.641Z,31.80
2022-12-18T10:26:19.874Z,30.50
2022-12-18T10:28:48.896Z,29.47
2022-12-18T10:31:24.282Z,26.38
2022-12-18T10:33:54.893Z,31.73
2022-12-18T10:36:25.418Z,28.88
2022-12-18T10:38:53.068Z,23.17
2022-12-18T10:41:21.935Z,32.25
2022-12-18T10:43:49.388Z,27.40
2022-12-18T10:46:22.066Z,30.45
2022-12-18T10:48:49.432Z,33.27
2022-12-18T10:51:29.559Z,26.80
2022-12-18T10:54:00.680Z,35.15
2022-12-18T10:56:30.119Z,30.45
2022-12-18T10:59:03.385Z,30.67
2022-12-18T11:01:59.135Z,30.75
2022-12-18T11:04:29.486Z,30.30
2022-12-18T11:07:08.332Z,26.38
2022-12-18T11:09:40.595Z,30.88
2022-12-18T11:12:13.843Z,30.37
2022-12-18T11:14:48.780Z,29.50
2022-12-18T11:17:35.628Z,40.35
2022-12-18T11:20:07.961Z,28.73
2022-12-18T11:22:37.227Z,33.45
2022-12-18T11:25:35.446Z,28.70
2022-12-18T11:28:05.077Z,32.03
2022-12-18T11:30:37.476Z,30.75
2022-12-18T11:33:14.279Z,25.60
2022-12-18T11:36:04.701Z,33.50
2022-12-18T11:38:41.737Z,32.27
2022-12-18T11:42:06.551Z,31.88
2022-12-18T11:45:00.149Z,29.35
2022-12-18T11:47:43.908Z,27.92
2022-12-18T11:50:20.118Z,36.42
2022-12-18T11:52:50.409Z,33.00
2022-12-18T11:55:45.532Z,32.83
2022-12-18T11:58:37.720Z,28.50
2022-12-18T12:01:41.975Z,34.53
2022-12-18T12:04:42.547Z,28.75
2022-12-18T12:07:25.518Z,35.28
2022-12-18T12:10:21.889Z,29.42
2022-12-18T12:12:51.917Z,36.13
2022-12-18T12:15:37.422Z,35.27
2022-12-18T12:18:36.400Z,36.50
2022-12-18T12:21:23.843Z,32.35
2022-12-18T12:23:56.885Z,36.73
2022-12-18T12:26:54.862Z,37.72
2022-12-18T12:29:31.198Z,36.55
2022-12-18T12:32:10.593Z,26.83
2022-12-18T12:35:07.889Z,37.95
2022-12-18T12:38:04.919Z,33.80
2022-12-18T12:40:53.505Z,37.25
2022-12-18T12:43:36.860Z,30.23
2022-12-18T12:46:10.077Z,37.78
2022-12-18T12:48:55.394Z,29.63
2022-12-18T12:51:36.378Z,36.47
2022-12-18T12:54:09.976Z,31.73
2022-12-18T12:56:45.608Z,36.40
2022-12-18T12:59:57.742Z,32.75
2022-12-18T13:02:32.742Z,38.80
2022-12-18T13:05:32.240Z,34.33
2022-12-18T13:08:11.900Z,32.45
2022-12-18T13:10:42.016Z,37.88
2022-12-18T13:16:09.040Z,38.53
2022-12-18T13:18:36.524Z,34.70
2022-12-18T13:21:19.838Z,38.72
2022-12-18T13:23:47.423Z,36.83
2022-12-18T13:26:18.505Z,39.47
2022-12-18T13:28:49.285Z,39.57
2022-12-18T13:31:41.938Z,29.03
2022-12-18T13:34:28.132Z,38.65
2022-12-18T13:37:29.143Z,36.80
2022-12-18T13:39:56.814Z,32.70
2022-12-18T13:42:51.586Z,35.60
2022-12-18T13:45:41.203Z,37.05
2022-12-18T13:48:19.121Z,37.35
2022-12-18T13:50:54.652Z,38.00
2022-12-18T13:53:49.893Z,39.15
2022-12-18T13:56:18.511Z,32.22
2022-12-18T13:58:45.816Z,37.03
2022-12-18T14:01:25.780Z,38.53
2022-12-18T14:04:10.062Z,35.63
2022-12-18T14:06:38.005Z,37.78
2022-12-18T14:09:06.129Z,31.92
2022-12-18T14:11:38.096Z,36.22
2022-12-18T14:14:08.374Z,39.28
2022-12-18T14:16:35.722Z,38.38
2022-12-18T14:19:15.243Z,33.90
2022-12-18T14:21:48.916Z,38.60
2022-12-18T14:24:19.926Z,36.45
2022-12-18T14:26:50.231Z,34.28
2022-12-18T14:29:24.751Z,36.15
2022-12-18T14:32:18.705Z,34.87
2022-12-18T14:34:50.893Z,33.70
2022-12-18T14:37:27.239Z,36.87
2022-12-18T14:40:03.145Z,32.90
2022-12-18T14:42:32.176Z,39.53
2022-12-18T14:45:42.224Z,35.00
2022-12-18T14:48:22.942Z,31.77
2022-12-18T14:51:19.713Z,35.95
2022-12-18T14:53:54.325Z,39.08
2022-12-18T14:56:26.150Z,35.88
2022-12-18T14:59:01.452Z,39.70
2022-12-18T15:01:38.054Z,40.33
2022-12-18T15:04:24.012Z,31.73
2022-12-18T15:07:22.483Z,36.70
2022-12-18T15:10:11.456Z,37.70
2022-12-18T15:12:45.845Z,32.33
2022-12-18T15:15:38.055Z,40.00
2022-12-18T15:18:11.431Z,38.73
2022-12-18T15:20:43.649Z,33.23
2022-12-18T15:23:21.265Z,37.80
2022-12-18T15:25:57.067Z,30.40
2022-12-18T15:28:28.725Z,41.65
2022-12-18T15:31:15.223Z,33.55
2022-12-18T15:33:54.075Z,34.60
2022-12-18T15:36:26.196Z,39.83
2022-12-18T15:38:56.139Z,39.73
2022-12-18T15:41:37.500Z,33.50
2022-12-18T15:44:23.795Z,41.45
2022-12-18T15:46:51.039Z,33.15
2022-12-18T15:49:18.353Z,37.67
2022-12-18T15:51:46.864Z,42.22
2022-12-18T15:54:38.858Z,41.10
2022-12-18T15:57:24.301Z,32.58
2022-12-18T15:59:58.949Z,33.67
2022-12-18T16:02:27.094Z,40.67
2022-12-18T16:04:55.080Z,33.85
2022-12-18T16:07:24.939Z,36.85
2022-12-18T16:09:53.234Z,34.13
2022-12-18T16:12:23.505Z,36.80
2022-12-18T16:14:50.828Z,40.33
2022-12-18T16:17:18.636Z,32.80
2022-12-18T16:19:45.894Z,39.90
2022-12-18T16:22:24.511Z,37.22
2022-12-18T16:24:53.317Z,37.73
2022-12-18T16:27:21.386Z,41.00
2022-12-18T16:29:48.893Z,44.58
2022-12-18T16:32:21.086Z,41.67
2022-12-18T16:34:48.479Z,43.25
2022-12-18T16:37:16.924Z,44.00
2022-12-18T16:39:45.153Z,34.35
2022-12-18T16:42:17.307Z,39.88
2022-12-18T16:44:44.952Z,34.85
2022-12-18T16:47:14.371Z,37.65
2022-12-18T16:49:45.193Z,41.28
2022-12-18T16:52:14.139Z,33.78
2022-12-18T16:54:41.505Z,34.25
2022-12-18T16:57:12.956Z,33.80
2022-12-18T16:59:40.155Z,36.42
2022-12-18T17:02:23.395Z,35.30
2022-12-18T17:04:54.900Z,45.22
2022-12-18T17:07:22.626Z,36.15
2022-12-18T17:09:51.095Z,36.63
2022-12-18T17:12:18.368Z,44.00
2022-12-18T17:14:45.531Z,34.75
2022-12-18T17:17:21.859Z,35.88
2022-12-18T17:19:50.966Z,42.60
2022-12-18T17:22:18.548Z,38.25
2022-12-18T17:24:47.101Z,37.75
2022-12-18T17:27:14.604Z,46.97
2022-12-18T17:29:47.374Z,35.72
2022-12-18T17:32:16.524Z,45.15
2022-12-18T17:34:43.740Z,44.47
2022-12-18T17:37:10.953Z,44.67
2022-12-18T17:39:38.418Z,40.28
2022-12-18T17:42:05.721Z,43.03
2022-12-18T17:44:36.662Z,55.78
2022-12-18T17:47:04.165Z,39.05
2022-12-18T17:49:31.617Z,38.55
2022-12-18T17:51:58.797Z,34.72
2022-12-18T17:54:25.988Z,38.97
2022-12-18T17:56:53.200Z,39.92
2022-12-18T17:59:20.468Z,37.33
2022-12-18T18:01:47.848Z,40.63
2022-12-18T18:04:15.517Z,37.10
2022-12-18T18:06:42.805Z,40.90
2022-12-18T18:09:16.011Z,41.33
2022-12-18T18:12:03.806Z,38.95
2022-12-18T18:14:31.661Z,41.80
2022-12-18T18:17:01.126Z,41.05
2022-12-18T18:19:32.906Z,45.30
2022-12-18T18:22:01.303Z,36.23
2022-12-18T18:24:28.509Z,45.28
2022-12-18T18:26:55.693Z,38.58
2022-12-18T18:29:26.689Z,38.47
2022-12-18T18:31:54.664Z,41.15
2022-12-18T18:34:24.505Z,35.40
2022-12-18T18:36:52.326Z,39.50
2022-12-18T18:39:19.975Z,43.13
2022-12-18T18:41:48.642Z,41.58
2022-12-18T18:44:17.393Z,34.30
2022-12-18T18:46:45.194Z,35.00
2022-12-18T18:49:13.758Z,39.00
2022-12-18T18:51:42.063Z,39.97
2022-12-18T18:54:10.054Z,37.90
2022-12-18T18:59:31.804Z,41.28
2022-12-18T19:02:04.595Z,44.28
2022-12-18T19:04:33.739Z,40.97
2022-12-18T19:07:01.435Z,44.10
2022-12-18T19:09:29.381Z,40.58
2022-12-18T19:12:16.023Z,40.58
2022-12-18T19:14:44.624Z,40.67
2022-12-18T19:17:11.910Z,40.83
2022-12-18T19:19:39.643Z,42.05
2022-12-18T19:22:07.286Z,38.58
2022-12-18T19:24:35.411Z,43.23
2022-12-18T19:27:02.627Z,41.60
2022-12-18T19:29:29.845Z,40.40
2022-12-18T19:31:57.189Z,39.80
2022-12-18T19:34:24.570Z,44.75
2022-12-18T19:36:57.990Z,42.47
2022-12-18T19:39:27.401Z,38.03
2022-12-18T19:41:54.677Z,38.17
2022-12-18T19:44:21.956Z,46.80
2022-12-18T19:46:52.044Z,38.77
2022-12-18T19:49:20.698Z,36.47
2022-12-18T20:56:22.709Z,41.90
2022-12-18T20:58:51.797Z,46.10
2022-12-18T21:01:23.790Z,48.40
2022-12-18T21:03:52.002Z,48.80
2022-12-18T21:06:21.906Z,45.67
2022-12-18T21:08:49.140Z,55.70
2022-12-18T21:11:39.451Z,44.90
2022-12-18T21:14:11.343Z,41.10
2022-12-18T21:16:40.002Z,47.05
2022-12-18T21:19:07.238Z,46.83
2022-12-18T21:21:38.585Z,42.23
2022-12-18T21:24:07.608Z,39.83
2022-12-18T21:26:35.003Z,50.90
2022-12-18T21:29:08.147Z,43.28
2022-12-18T21:31:37.694Z,44.45
2022-12-18T21:34:06.698Z,46.35
2022-12-18T21:36:35.162Z,42.63
2022-12-18T21:39:02.588Z,45.83
2022-12-18T21:41:48.863Z,48.17
2022-12-18T21:44:18.038Z,44.35
2022-12-18T21:46:52.959Z,44.38
2022-12-18T21:49:24.199Z,45.75
2022-12-18T21:51:55.255Z,46.33
2022-12-18T21:54:24.001Z,43.83
2022-12-18T21:56:59.135Z,45.97
2022-12-18T21:59:31.087Z,44.22
2022-12-18T22:02:01.242Z,42.13
2022-12-18T22:04:29.051Z,47.10
2022-12-18T22:06:57.150Z,43.60
2022-12-18T22:09:25.775Z,59.38
2022-12-18T22:11:53.149Z,46.10
2022-12-18T22:14:21.672Z,53.85
2022-12-18T22:16:49.302Z,42.97
2022-12-18T22:19:17.275Z,42.58
2022-12-18T22:21:47.387Z,46.50
2022-12-18T22:24:15.857Z,53.28
2022-12-18T22:26:43.968Z,55.47
2022-12-18T22:29:41.472Z,58.55
2022-12-18T22:32:11.505Z,43.95
2022-12-18T22:34:40.811Z,43.90
2022-12-18T22:37:09.430Z,46.97
2022-12-18T22:39:36.674Z,43.60
2022-12-18T22:42:05.201Z,51.22
2022-12-18T22:44:32.425Z,51.13
2022-12-18T22:47:05.560Z,44.00
2022-12-18T22:49:35.779Z,49.88
2022-12-18T22:52:04.726Z,42.80
2022-12-18T22:54:31.982Z,41.60
2022-12-18T22:56:59.170Z,44.17
2022-12-18T22:59:26.362Z,42.33
2022-12-18T23:01:58.555Z,51.83
2022-12-18T23:04:33.448Z,44.58
2022-12-18T23:07:05.289Z,53.28
2022-12-18T23:09:33.548Z,45.53
2022-12-18T23:12:01.156Z,58.63
2022-12-18T23:14:29.180Z,64.57
2022-12-18T23:16:56.651Z,51.00
2022-12-18T23:19:24.697Z,52.20
2022-12-18T23:21:52.175Z,45.03
2022-12-18T23:24:21.949Z,49.75
2022-12-18T23:26:49.149Z,45.87
2022-12-18T23:29:16.323Z,44.17
2022-12-18T23:31:43.488Z,46.78
2022-12-18T23:34:13.275Z,50.20
2022-12-18T23:36:45.575Z,45.22
2022-12-18T23:39:17.441Z,46.65
2022-12-18T23:41:57.453Z,45.55
2022-12-18T23:44:24.921Z,48.55
2022-12-18T23:46:52.765Z,76.55
2022-12-18T23:49:20.364Z,57.22
2022-12-18T23:51:47.599Z,77.43
2022-12-18T23:54:15.070Z,62.08
2022-12-18T23:56:42.353Z,73.07
2022-12-18T23:59:09.839Z,77.43
